Time;durP1;ratioP1;P1;durP2;ratioP2;P2;SDS_P1;SDS_P2;PMS_P1;PMS_P2;Temp;Humidity;BMP_temperature;BMP_pressure;BME280_temperature;BME280_humidity;BME280_pressure;Samples;Min_cycle;Max_cycle;Signal;HPM_P1;HPM_P2
2021/12/30 00:00:43;;;;;;;17.15;1.65;;;;;;;;;;5033374;28;20037;-58
2021/12/30 00:03:08;;;;;;;6.25;1.63;;;;;;;;;;5037934;28;20053;-64
2021/12/30 00:05:34;;;;;;;9.00;1.35;;;;;;;;;;5040812;28;20040;-61
2021/12/30 00:08:00;;;;;;;8.10;1.70;;;;;;;;;;5037812;28;20033;-59
2021/12/30 00:10:26;;;;;;;11.27;1.83;;;;;;;;;;5039020;28;20025;-57
2021/12/30 00:12:52;;;;;;;10.48;1.27;;;;;;;;;;5036287;28;20037;-59
2021/12/30 00:15:19;;;;;;;9.25;1.85;;;;;;;;;;5039239;28;20095;-61
2021/12/30 00:17:45;;;;;;;13.40;2.00;;;;;;;;;;5039879;28;20028;-57
2021/12/30 00:20:11;;;;;;;7.70;0.93;;;;;;;;;;5041179;28;20410;-57
2021/12/30 00:22:37;;;;;;;10.75;2.03;;;;;;;;;;5038031;28;20055;-57
2021/12/30 00:25:05;;;;;;;3.55;0.90;;;;;;;;;;5030930;28;20125;-58
2021/12/30 00:27:30;;;;;;;7.00;1.10;;;;;;;;;;5036579;28;20075;-59
2021/12/30 00:29:56;;;;;;;5.60;1.00;;;;;;;;;;5032501;28;20041;-58
2021/12/30 00:32:21;;;;;;;3.20;1.00;;;;;;;;;;5037262;28;20431;-59
2021/12/30 00:34:47;;;;;;;7.93;1.30;;;;;;;;;;5031139;28;20433;-58
2021/12/30 00:37:13;;;;;;;10.57;1.63;;;;;;;;;;5041822;28;20107;-58
2021/12/30 00:39:38;;;;;;;6.78;1.58;;;;;;;;;;5035312;28;20054;-59
2021/12/30 00:42:04;;;;;;;4.35;1.05;;;;;;;;;;5032880;28;20029;-58
2021/12/30 00:44:30;;;;;;;3.95;1.30;;;;;;;;;;5032836;28;20040;-58
2021/12/30 00:46:58;;;;;;;5.50;1.13;;;;;;;;;;5036191;28;20059;-58
2021/12/30 00:49:24;;;;;;;6.45;1.17;;;;;;;;;;5045472;28;20630;-57
2021/12/30 00:51:49;;;;;;;10.30;0.95;;;;;;;;;;5041701;28;20314;-58
2021/12/30 00:54:15;;;;;;;9.73;1.05;;;;;;;;;;5047508;28;20021;-58
2021/12/30 00:56:41;;;;;;;5.07;1.02;;;;;;;;;;5045744;28;20110;-60
2021/12/30 00:59:07;;;;;;;5.43;0.85;;;;;;;;;;5041753;28;20440;-58
2021/12/30 01:01:33;;;;;;;1.88;0.93;;;;;;;;;;5036617;28;20463;-58
2021/12/30 01:03:58;;;;;;;4.80;0.93;;;;;;;;;;5040951;28;20040;-57
2021/12/30 01:06:24;;;;;;;10.15;0.90;;;;;;;;;;5045304;28;20399;-58
2021/12/30 01:08:49;;;;;;;12.65;1.30;;;;;;;;;;5037054;28;20563;-55
2021/12/30 01:11:15;;;;;;;5.97;1.15;;;;;;;;;;5037693;28;20377;-59
2021/12/30 01:13:44;;;;;;;2.40;0.82;;;;;;;;;;5041855;28;20033;-56
2021/12/30 01:16:17;;;;;;;0.98;0.50;;;;;;;;;;5039483;28;20082;-58
2021/12/30 01:19:00;;;;;;;3.78;0.80;;;;;;;;;;5051266;28;20025;-57
2021/12/30 01:21:29;;;;;;;6.18;0.68;;;;;;;;;;5038723;28;20267;-57
2021/12/30 01:23:56;;;;;;;4.47;0.75;;;;;;;;;;5038106;28;20052;-60
2021/12/30 01:26:22;;;;;;;6.55;0.90;;;;;;;;;;5042529;28;20043;-58
2021/12/30 01:28:49;;;;;;;7.28;0.98;;;;;;;;;;5036607;28;20078;-58
2021/12/30 01:31:16;;;;;;;8.63;0.73;;;;;;;;;;5041608;28;20031;-57
2021/12/30 01:33:43;;;;;;;3.70;0.85;;;;;;;;;;5036861;28;20064;-57
2021/12/30 01:36:10;;;;;;;2.28;0.52;;;;;;;;;;5043134;28;20025;-57
2021/12/30 01:38:36;;;;;;;8.80;0.95;;;;;;;;;;5039767;28;20537;-57
2021/12/30 01:41:03;;;;;;;2.10;0.45;;;;;;;;;;5040783;28;20033;-58
2021/12/30 01:43:29;;;;;;;2.72;0.50;;;;;;;;;;5040821;28;20021;-58
2021/12/30 01:45:55;;;;;;;0.40;0.35;;;;;;;;;;5040492;28;20041;-57
2021/12/30 01:48:21;;;;;;;9.13;0.75;;;;;;;;;;5048910;28;20070;-58
2021/12/30 01:50:48;;;;;;;1.52;0.50;;;;;;;;;;5041431;28;20645;-56
2021/12/30 01:53:14;;;;;;;0.80;0.30;;;;;;;;;;5034847;28;20090;-57
2021/12/30 01:55:42;;;;;;;0.85;0.70;;;;;;;;;;5041164;28;20056;-63
2021/12/30 01:58:09;;;;;;;3.25;0.60;;;;;;;;;;5040060;28;20412;-58
2021/12/30 02:00:36;;;;;;;2.13;0.45;;;;;;;;;;5039992;28;20097;-57
2021/12/30 02:03:02;;;;;;;2.50;0.50;;;;;;;;;;5040966;28;20515;-59
2021/12/30 02:05:28;;;;;;;3.65;0.65;;;;;;;;;;5041772;28;20060;-55
2021/12/30 02:07:55;;;;;;;1.02;0.32;;;;;;;;;;5038750;28;20507;-58
2021/12/30 02:10:21;;;;;;;2.40;0.63;;;;;;;;;;5040479;28;20035;-56
2021/12/30 02:12:46;;;;;;;0.68;0.30;;;;;;;;;;5039354;28;20107;-58
2021/12/30 02:15:15;;;;;;;0.60;0.30;;;;;;;;;;5037699;28;20458;-57
2021/12/30 02:17:41;;;;;;;0.30;0.30;;;;;;;;;;5034354;28;20025;-58
2021/12/30 02:20:32;;;;;;;0.80;0.20;;;;;;;;;;5039195;28;20275;-62
2021/12/30 02:22:57;;;;;;;0.65;0.30;;;;;;;;;;5038835;28;20575;-56
2021/12/30 02:25:23;;;;;;;0.32;0.20;;;;;;;;;;5032794;28;20041;-56
2021/12/30 02:27:48;;;;;;;0.95;0.40;;;;;;;;;;5040311;28;20063;-57
2021/12/30 02:30:14;;;;;;;1.63;0.47;;;;;;;;;;5036540;28;20187;-57
2021/12/30 02:32:39;;;;;;;0.55;0.40;;;;;;;;;;5035982;28;20033;-56
2021/12/30 02:35:05;;;;;;;1.85;0.40;;;;;;;;;;5038284;28;20404;-57
2021/12/30 02:37:31;;;;;;;1.70;0.65;;;;;;;;;;5039763;28;20034;-57
2021/12/30 02:39:56;;;;;;;0.30;0.30;;;;;;;;;;5034985;28;20052;-58
2021/12/30 02:42:25;;;;;;;0.90;0.30;;;;;;;;;;5048758;28;20063;-57
2021/12/30 02:44:51;;;;;;;0.60;0.40;;;;;;;;;;5033953;28;20124;-57
2021/12/30 02:47:17;;;;;;;0.50;0.30;;;;;;;;;;5037404;28;20037;-58
2021/12/30 02:49:43;;;;;;;0.60;0.30;;;;;;;;;;5044828;28;20527;-58
2021/12/30 02:52:09;;;;;;;2.60;0.45;;;;;;;;;;5039779;28;20124;-58
2021/12/30 02:54:37;;;;;;;0.95;0.30;;;;;;;;;;5039003;28;20041;-65
2021/12/30 02:57:03;;;;;;;0.40;0.30;;;;;;;;;;5037194;28;20078;-57
2021/12/30 02:59:28;;;;;;;0.25;0.20;;;;;;;;;;5038889;28;20037;-63
2021/12/30 03:01:55;;;;;;;0.50;0.30;;;;;;;;;;5040523;28;20112;-55
2021/12/30 03:04:20;;;;;;;0.55;0.35;;;;;;;;;;5037412;28;20029;-57
2021/12/30 03:06:46;;;;;;;2.05;0.28;;;;;;;;;;5038281;28;20044;-56
2021/12/30 03:09:11;;;;;;;0.52;0.38;;;;;;;;;;5038310;28;20038;-56
2021/12/30 03:11:37;;;;;;;0.50;0.40;;;;;;;;;;5040806;28;20053;-57
2021/12/30 03:14:02;;;;;;;0.20;0.20;;;;;;;;;;5037902;28;20068;-53
2021/12/30 03:16:37;;;;;;;1.98;0.40;;;;;;;;;;5035879;28;20037;-56
2021/12/30 03:19:04;;;;;;;4.90;0.38;;;;;;;;;;5036108;28;20032;-59
2021/12/30 03:21:31;;;;;;;0.45;0.40;;;;;;;;;;5032329;28;20033;-57
2021/12/30 03:24:00;;;;;;;0.73;0.45;;;;;;;;;;5039082;28;20068;-58
2021/12/30 03:26:26;;;;;;;0.60;0.32;;;;;;;;;;5033119;28;20108;-57
2021/12/30 03:28:52;;;;;;;0.25;0.22;;;;;;;;;;5039944;28;20028;-58
2021/12/30 03:31:19;;;;;;;0.30;0.22;;;;;;;;;;5032386;28;20045;-57
2021/12/30 03:33:46;;;;;;;0.35;0.22;;;;;;;;;;5034528;28;20116;-59
2021/12/30 03:36:12;;;;;;;0.50;0.50;;;;;;;;;;5033052;28;20029;-59
2021/12/30 03:38:41;;;;;;;0.60;0.40;;;;;;;;;;5032730;28;20033;-60
2021/12/30 03:41:10;;;;;;;0.40;0.38;;;;;;;;;;5030729;28;20033;-59
2021/12/30 03:43:36;;;;;;;0.52;0.40;;;;;;;;;;5043698;28;20033;-60
2021/12/30 03:46:04;;;;;;;2.72;0.45;;;;;;;;;;5030596;28;20033;-61
2021/12/30 03:48:34;;;;;;;1.17;0.47;;;;;;;;;;5037630;28;20030;-58
2021/12/30 03:51:05;;;;;;;0.40;0.40;;;;;;;;;;5033251;28;20041;-57
2021/12/30 03:53:31;;;;;;;0.32;0.20;;;;;;;;;;5033184;28;20035;-57
2021/12/30 03:55:57;;;;;;;0.30;0.30;;;;;;;;;;5041202;28;20037;-58
2021/12/30 03:58:22;;;;;;;0.50;0.40;;;;;;;;;;5028758;28;20045;-57
2021/12/30 04:00:48;;;;;;;0.43;0.40;;;;;;;;;;5037443;28;20037;-57
2021/12/30 04:03:13;;;;;;;0.30;0.30;;;;;;;;;;5037509;28;20031;-56
2021/12/30 04:05:39;;;;;;;0.47;0.20;;;;;;;;;;5041211;28;20035;-58
2021/12/30 04:08:07;;;;;;;0.30;0.22;;;;;;;;;;5035917;28;20123;-57
2021/12/30 04:10:33;;;;;;;0.10;0.10;;;;;;;;;;5032122;28;20037;-56
2021/12/30 04:12:59;;;;;;;0.25;0.25;;;;;;;;;;5035876;28;20579;-56
2021/12/30 04:15:24;;;;;;;0.60;0.35;;;;;;;;;;5036485;28;20041;-57
2021/12/30 04:17:50;;;;;;;0.50;0.45;;;;;;;;;;5035316;28;20057;-54
2021/12/30 04:20:16;;;;;;;0.93;0.68;;;;;;;;;;5041778;28;20291;-63
2021/12/30 04:22:42;;;;;;;0.45;0.40;;;;;;;;;;5035582;28;20072;-60
2021/12/30 04:25:11;;;;;;;0.30;0.30;;;;;;;;;;5035073;28;20403;-59
2021/12/30 04:27:37;;;;;;;1.13;0.50;;;;;;;;;;5038642;28;20025;-59
2021/12/30 04:30:06;;;;;;;0.45;0.30;;;;;;;;;;5041411;28;20041;-57
2021/12/30 04:32:32;;;;;;;0.38;0.38;;;;;;;;;;5032893;28;20042;-57
2021/12/30 04:34:58;;;;;;;1.40;0.30;;;;;;;;;;5041068;28;20091;-61
2021/12/30 04:37:24;;;;;;;0.32;0.25;;;;;;;;;;5039363;28;20090;-59
2021/12/30 04:39:49;;;;;;;0.30;0.20;;;;;;;;;;5036329;28;20039;-62
2021/12/30 04:42:15;;;;;;;0.20;0.20;;;;;;;;;;5038289;28;20028;-63
2021/12/30 04:44:40;;;;;;;0.75;0.60;;;;;;;;;;5037189;28;20253;-62
2021/12/30 04:47:06;;;;;;;1.40;0.20;;;;;;;;;;5037438;28;20059;-61
2021/12/30 04:49:32;;;;;;;0.22;0.22;;;;;;;;;;5043178;28;20440;-65
2021/12/30 04:51:57;;;;;;;0.52;0.50;;;;;;;;;;5039163;28;20029;-66
2021/12/30 04:54:23;;;;;;;1.10;0.30;;;;;;;;;;5042245;28;20107;-58
2021/12/30 04:56:50;;;;;;;0.20;0.20;;;;;;;;;;5043679;28;20441;-62
2021/12/30 04:59:16;;;;;;;0.30;0.30;;;;;;;;;;5047670;28;20067;-62
2021/12/30 05:01:42;;;;;;;0.28;0.28;;;;;;;;;;5040995;28;20428;-60
2021/12/30 05:04:07;;;;;;;0.10;0.10;;;;;;;;;;5031343;28;20484;-60
2021/12/30 05:06:34;;;;;;;1.10;0.35;;;;;;;;;;5035678;28;20445;-59
2021/12/30 05:09:00;;;;;;;1.08;0.35;;;;;;;;;;5043337;28;20072;-63
2021/12/30 05:11:25;;;;;;;0.20;0.20;;;;;;;;;;5035842;28;20052;-61
2021/12/30 05:13:51;;;;;;;0.20;0.20;;;;;;;;;;5035792;28;20095;-61
2021/12/30 05:16:18;;;;;;;5.47;0.60;;;;;;;;;;5037772;28;20052;-62
2021/12/30 05:18:44;;;;;;;1.02;0.30;;;;;;;;;;5044004;28;20025;-63
2021/12/30 05:21:10;;;;;;;1.77;0.30;;;;;;;;;;5038431;28;20034;-64
2021/12/30 05:23:36;;;;;;;0.57;0.40;;;;;;;;;;5038905;28;20031;-63
2021/12/30 05:26:02;;;;;;;0.30;0.30;;;;;;;;;;5039450;28;20157;-62
2021/12/30 05:28:28;;;;;;;1.33;0.40;;;;;;;;;;5038252;28;20135;-60
2021/12/30 05:30:53;;;;;;;0.30;0.20;;;;;;;;;;5045227;28;20021;-61
2021/12/30 05:33:19;;;;;;;0.70;0.20;;;;;;;;;;5035460;28;20380;-60
2021/12/30 05:35:44;;;;;;;0.20;0.20;;;;;;;;;;5039891;28;20061;-62
2021/12/30 05:38:10;;;;;;;0.28;0.28;;;;;;;;;;5037869;28;20045;-60
2021/12/30 05:40:35;;;;;;;1.90;0.40;;;;;;;;;;5040387;28;20487;-63
2021/12/30 05:43:02;;;;;;;0.30;0.20;;;;;;;;;;5037380;28;20391;-60
2021/12/30 05:45:28;;;;;;;0.85;0.32;;;;;;;;;;5045207;28;20499;-60
2021/12/30 05:47:54;;;;;;;0.30;0.30;;;;;;;;;;5043271;28;20090;-66
2021/12/30 05:50:23;;;;;;;0.20;0.20;;;;;;;;;;5040001;28;20115;-66
2021/12/30 05:52:48;;;;;;;0.30;0.30;;;;;;;;;;5040349;28;20079;-62
2021/12/30 05:55:15;;;;;;;0.40;0.22;;;;;;;;;;5044959;28;20033;-62
2021/12/30 05:57:41;;;;;;;0.55;0.40;;;;;;;;;;5047193;28;20395;-61
2021/12/30 06:00:09;;;;;;;0.80;0.30;;;;;;;;;;5041595;28;20850;-60
2021/12/30 06:02:35;;;;;;;0.47;0.40;;;;;;;;;;5046816;28;20166;-62
2021/12/30 06:05:00;;;;;;;0.73;0.40;;;;;;;;;;5035299;28;20084;-61
2021/12/30 06:07:26;;;;;;;3.40;0.63;;;;;;;;;;5039990;28;21624;-60
2021/12/30 06:09:51;;;;;;;0.30;0.30;;;;;;;;;;5041964;28;20029;-62
2021/12/30 06:12:17;;;;;;;1.15;0.40;;;;;;;;;;5036131;28;20049;-59
2021/12/30 06:14:42;;;;;;;0.75;0.35;;;;;;;;;;5038467;28;20399;-61
2021/12/30 06:17:10;;;;;;;2.50;0.40;;;;;;;;;;5040361;28;20416;-61
2021/12/30 06:19:36;;;;;;;0.20;0.20;;;;;;;;;;5040394;28;20021;-62
2021/12/30 06:22:03;;;;;;;4.88;0.50;;;;;;;;;;5039002;28;20333;-62
2021/12/30 06:24:28;;;;;;;2.17;0.40;;;;;;;;;;5043020;28;20803;-62
2021/12/30 06:26:54;;;;;;;0.28;0.25;;;;;;;;;;5040444;28;20033;-61
2021/12/30 06:29:19;;;;;;;0.45;0.30;;;;;;;;;;5035949;28;20030;-61
2021/12/30 06:31:45;;;;;;;1.75;0.30;;;;;;;;;;5040587;28;20124;-61
2021/12/30 06:34:10;;;;;;;0.93;0.25;;;;;;;;;;5044745;28;20044;-63
2021/12/30 06:36:36;;;;;;;1.02;0.40;;;;;;;;;;5041861;28;20174;-62
2021/12/30 06:39:02;;;;;;;3.22;0.50;;;;;;;;;;5042671;28;20106;-63
2021/12/30 06:41:28;;;;;;;4.68;0.57;;;;;;;;;;5040318;28;20036;-61
2021/12/30 06:43:53;;;;;;;2.15;0.52;;;;;;;;;;5037907;28;20025;-61
2021/12/30 06:46:21;;;;;;;1.88;0.50;;;;;;;;;;5042599;28;20488;-62
2021/12/30 06:48:46;;;;;;;5.65;0.60;;;;;;;;;;5035196;28;20390;-61
2021/12/30 06:51:13;;;;;;;6.43;0.50;;;;;;;;;;5035135;28;20026;-62
2021/12/30 06:53:39;;;;;;;3.13;0.45;;;;;;;;;;5036310;28;20033;-62
2021/12/30 06:56:05;;;;;;;10.30;0.38;;;;;;;;;;5040088;28;20038;-63
2021/12/30 06:58:30;;;;;;;1.85;0.43;;;;;;;;;;5039936;28;20104;-64
2021/12/30 07:00:57;;;;;;;5.20;0.30;;;;;;;;;;5041343;28;20060;-62
2021/12/30 07:03:23;;;;;;;4.35;0.60;;;;;;;;;;5046234;28;20564;-63
2021/12/30 07:05:51;;;;;;;2.30;0.30;;;;;;;;;;5041689;28;20121;-62
2021/12/30 07:08:17;;;;;;;5.75;0.47;;;;;;;;;;5044110;28;20025;-63
2021/12/30 07:10:42;;;;;;;3.83;0.52;;;;;;;;;;5038590;28;20110;-63
2021/12/30 07:13:08;;;;;;;2.35;0.50;;;;;;;;;;5037313;28;20057;-63
2021/12/30 07:15:34;;;;;;;3.38;0.40;;;;;;;;;;5032260;28;20127;-64
2021/12/30 07:17:59;;;;;;;3.95;0.50;;;;;;;;;;5042694;28;20069;-64
2021/12/30 07:20:25;;;;;;;4.18;0.40;;;;;;;;;;5044164;28;20411;-63
2021/12/30 07:22:50;;;;;;;1.63;0.55;;;;;;;;;;5038394;28;20263;-63
2021/12/30 07:25:16;;;;;;;2.30;0.68;;;;;;;;;;5040011;28;20094;-64
2021/12/30 07:27:50;;;;;;;3.15;0.80;;;;;;;;;;5037773;28;20033;-63
2021/12/30 07:30:17;;;;;;;2.63;0.60;;;;;;;;;;5040268;28;20112;-64
2021/12/30 07:32:43;;;;;;;2.03;0.60;;;;;;;;;;5035194;28;20606;-64
2021/12/30 07:35:09;;;;;;;4.70;0.75;;;;;;;;;;5037485;28;20072;-63
2021/12/30 07:37:35;;;;;;;8.27;0.68;;;;;;;;;;5043058;28;20305;-64
2021/12/30 07:40:00;;;;;;;3.67;0.70;;;;;;;;;;5035745;28;20036;-64
2021/12/30 07:42:26;;;;;;;5.25;0.82;;;;;;;;;;5033414;28;20112;-64
2021/12/30 07:44:51;;;;;;;4.88;0.77;;;;;;;;;;5036352;28;20037;-64
2021/12/30 07:47:17;;;;;;;4.00;0.38;;;;;;;;;;5043848;28;20396;-64
2021/12/30 07:49:43;;;;;;;0.38;0.25;;;;;;;;;;5034000;28;20034;-63
2021/12/30 07:52:08;;;;;;;2.60;0.52;;;;;;;;;;5031883;28;20345;-63
2021/12/30 07:54:34;;;;;;;3.03;0.60;;;;;;;;;;5031051;28;20112;-63
2021/12/30 07:57:00;;;;;;;2.42;0.50;;;;;;;;;;5037654;28;20388;-63
2021/12/30 07:59:26;;;;;;;3.78;0.30;;;;;;;;;;5034071;28;20037;-63
2021/12/30 08:01:52;;;;;;;4.53;0.50;;;;;;;;;;5037806;28;20025;-64
2021/12/30 08:04:17;;;;;;;1.10;0.25;;;;;;;;;;5038046;28;20032;-64
2021/12/30 08:06:43;;;;;;;6.55;0.57;;;;;;;;;;5035241;28;20059;-64
2021/12/30 08:09:08;;;;;;;2.30;0.35;;;;;;;;;;5032378;28;20116;-64
2021/12/30 08:11:34;;;;;;;1.10;0.28;;;;;;;;;;5037800;28;20507;-64
2021/12/30 08:14:00;;;;;;;0.77;0.32;;;;;;;;;;5034409;28;20063;-64
2021/12/30 08:16:26;;;;;;;1.00;0.30;;;;;;;;;;5041025;28;20029;-63
2021/12/30 08:18:52;;;;;;;5.82;0.40;;;;;;;;;;5041479;28;20335;-64
2021/12/30 08:21:19;;;;;;;2.33;0.30;;;;;;;;;;5039904;28;20508;-65
2021/12/30 08:23:46;;;;;;;7.50;1.10;;;;;;;;;;5032567;28;20039;-64
2021/12/30 08:26:11;;;;;;;4.00;0.30;;;;;;;;;;5043507;28;20029;-65
2021/12/30 08:28:37;;;;;;;1.38;0.47;;;;;;;;;;5038394;28;20036;-64
2021/12/30 08:31:02;;;;;;;0.35;0.30;;;;;;;;;;5034525;28;20086;-61
2021/12/30 08:33:28;;;;;;;2.10;0.45;;;;;;;;;;5041064;28;20021;-64
2021/12/30 08:35:54;;;;;;;9.88;0.40;;;;;;;;;;5033830;28;20481;-64
2021/12/30 08:38:19;;;;;;;1.30;0.35;;;;;;;;;;5035314;28;20124;-63
2021/12/30 08:40:47;;;;;;;0.77;0.20;;;;;;;;;;5034240;28;20040;-63
2021/12/30 08:43:14;;;;;;;2.53;0.20;;;;;;;;;;5034828;28;20449;-64
2021/12/30 08:45:40;;;;;;;2.00;0.70;;;;;;;;;;5033611;28;20484;-64
2021/12/30 08:48:06;;;;;;;2.00;0.38;;;;;;;;;;5036931;28;20028;-63
2021/12/30 08:50:32;;;;;;;3.47;0.50;;;;;;;;;;5035067;28;20404;-64
2021/12/30 08:52:58;;;;;;;5.85;0.60;;;;;;;;;;5038639;28;20081;-64
2021/12/30 08:55:24;;;;;;;3.28;0.45;;;;;;;;;;5041687;28;20619;-64
2021/12/30 08:57:50;;;;;;;2.22;0.50;;;;;;;;;;5039116;28;20086;-63
2021/12/30 09:00:25;;;;;;;1.13;0.50;;;;;;;;;;5039998;28;20373;-64
2021/12/30 09:02:53;;;;;;;2.95;0.50;;;;;;;;;;5037700;28;20024;-64
2021/12/30 09:05:19;;;;;;;1.65;0.38;;;;;;;;;;5033799;28;20020;-63
2021/12/30 09:07:46;;;;;;;4.40;0.93;;;;;;;;;;5038634;28;20469;-64
2021/12/30 09:10:14;;;;;;;1.55;0.70;;;;;;;;;;5040320;28;20030;-64
2021/12/30 09:12:43;;;;;;;2.17;0.63;;;;;;;;;;5035608;28;20029;-63
2021/12/30 09:15:11;;;;;;;1.40;0.38;;;;;;;;;;5040922;28;20091;-63
2021/12/30 09:17:37;;;;;;;4.82;0.65;;;;;;;;;;5041669;28;20427;-63
2021/12/30 09:20:03;;;;;;;2.13;0.60;;;;;;;;;;5041866;28;20374;-63
2021/12/30 09:22:29;;;;;;;6.13;0.65;;;;;;;;;;5053383;28;20431;-63
2021/12/30 09:24:54;;;;;;;1.08;0.40;;;;;;;;;;5037247;28;20030;-63
2021/12/30 09:27:20;;;;;;;2.67;0.43;;;;;;;;;;5039903;28;20727;-64
2021/12/30 09:29:46;;;;;;;6.75;0.60;;;;;;;;;;5039396;28;20117;-64
2021/12/30 09:32:11;;;;;;;9.23;0.70;;;;;;;;;;5041403;28;20060;-63
2021/12/30 09:34:38;;;;;;;1.52;0.40;;;;;;;;;;5044060;28;20306;-63
2021/12/30 09:37:08;;;;;;;3.90;0.50;;;;;;;;;;5037973;28;20428;-62
2021/12/30 09:39:35;;;;;;;1.85;0.40;;;;;;;;;;5044977;28;20057;-63
2021/12/30 09:42:01;;;;;;;2.13;0.30;;;;;;;;;;5046707;28;20074;-63
2021/12/30 09:44:27;;;;;;;3.00;0.60;;;;;;;;;;5047911;28;20473;-63
2021/12/30 09:46:52;;;;;;;1.58;0.40;;;;;;;;;;5045707;28;20037;-63
2021/12/30 09:49:19;;;;;;;4.47;0.60;;;;;;;;;;5046034;28;20476;-63
2021/12/30 09:51:46;;;;;;;1.95;0.30;;;;;;;;;;5048057;28;20078;-64
2021/12/30 09:54:12;;;;;;;4.22;0.88;;;;;;;;;;5036543;28;20040;-64
2021/12/30 09:56:38;;;;;;;3.90;0.38;;;;;;;;;;5045227;28;20032;-63
2021/12/30 09:59:03;;;;;;;2.65;0.45;;;;;;;;;;5031821;28;20033;-64
2021/12/30 10:01:29;;;;;;;7.90;0.65;;;;;;;;;;5035287;28;20036;-63
2021/12/30 10:04:01;;;;;;;4.88;0.80;;;;;;;;;;5032807;28;20037;-64
2021/12/30 10:06:26;;;;;;;3.88;0.70;;;;;;;;;;5040959;28;20075;-65
2021/12/30 10:08:58;;;;;;;7.55;1.55;;;;;;;;;;5032158;28;20037;-64
2021/12/30 10:11:24;;;;;;;3.53;0.88;;;;;;;;;;5041221;28;20021;-64
2021/12/30 10:13:53;;;;;;;8.48;1.25;;;;;;;;;;5032003;28;20518;-63
2021/12/30 10:16:20;;;;;;;3.75;0.88;;;;;;;;;;5034577;28;20506;-65
2021/12/30 10:18:51;;;;;;;6.75;1.20;;;;;;;;;;5036275;28;20037;-64
2021/12/30 10:21:21;;;;;;;4.50;1.20;;;;;;;;;;5038504;28;20113;-65
2021/12/30 10:24:13;;;;;;;6.45;1.20;;;;;;;;;;5044987;28;20444;-64
2021/12/30 10:26:53;;;;;;;2.92;0.50;;;;;;;;;;5035419;28;20067;-63
2021/12/30 10:29:18;;;;;;;3.60;0.50;;;;;;;;;;5038979;28;20025;-63
2021/12/30 10:31:44;;;;;;;2.42;0.75;;;;;;;;;;5047358;28;20036;-64
2021/12/30 10:34:11;;;;;;;3.45;0.68;;;;;;;;;;5040200;28;20047;-63
2021/12/30 10:36:41;;;;;;;7.07;1.10;;;;;;;;;;5040419;28;20056;-64
2021/12/30 10:39:16;;;;;;;2.45;0.50;;;;;;;;;;5042439;28;20025;-64
2021/12/30 10:41:41;;;;;;;1.60;0.63;;;;;;;;;;5035257;28;20048;-63
2021/12/30 10:44:07;;;;;;;2.85;0.70;;;;;;;;;;5036567;28;20033;-64
2021/12/30 10:46:33;;;;;;;2.13;0.47;;;;;;;;;;5036512;28;20118;-63
2021/12/30 10:49:29;;;;;;;0.68;0.43;;;;;;;;;;5039415;28;20026;-63
2021/12/30 10:51:57;;;;;;;1.42;0.40;;;;;;;;;;5041351;28;20033;-61
2021/12/30 10:54:31;;;;;;;3.20;0.50;;;;;;;;;;5040556;28;20389;-62
2021/12/30 10:57:02;;;;;;;1.40;0.40;;;;;;;;;;5042270;28;20148;-62
2021/12/30 10:59:28;;;;;;;2.25;0.45;;;;;;;;;;5036818;28;20045;-63
2021/12/30 11:02:08;;;;;;;2.42;0.50;;;;;;;;;;5039543;28;20485;-62
2021/12/30 11:04:43;;;;;;;1.98;0.55;;;;;;;;;;5042320;28;20558;-62
2021/12/30 11:07:13;;;;;;;2.08;0.30;;;;;;;;;;5037510;28;20395;-61
2021/12/30 11:10:11;;;;;;;1.58;0.40;;;;;;;;;;5038259;28;20439;-62
2021/12/30 11:12:42;;;;;;;1.05;0.30;;;;;;;;;;5032865;28;20033;-62
2021/12/30 11:15:23;;;;;;;4.67;0.27;;;;;;;;;;5035260;28;20025;-63
2021/12/30 11:17:50;;;;;;;1.00;0.22;;;;;;;;;;5038805;28;20086;-63
2021/12/30 11:20:20;;;;;;;3.30;0.98;;;;;;;;;;5037800;28;20029;-63
2021/12/30 11:22:48;;;;;;;1.85;0.28;;;;;;;;;;5033952;28;20018;-63
2021/12/30 11:25:15;;;;;;;1.58;0.38;;;;;;;;;;5035282;28;20435;-63
2021/12/30 11:27:41;;;;;;;4.30;0.50;;;;;;;;;;5034837;28;20391;-63
2021/12/30 11:30:09;;;;;;;1.48;0.40;;;;;;;;;;5032198;28;20115;-63
2021/12/30 11:32:36;;;;;;;3.38;0.57;;;;;;;;;;5041388;28;20492;-63
2021/12/30 11:35:03;;;;;;;2.28;0.60;;;;;;;;;;5043497;28;20056;-63
2021/12/30 11:37:30;;;;;;;4.97;1.02;;;;;;;;;;5042086;28;20029;-63
2021/12/30 11:39:58;;;;;;;3.85;1.00;;;;;;;;;;5036561;28;20044;-63
2021/12/30 11:42:37;;;;;;;1.85;0.50;;;;;;;;;;5031362;28;20251;-64
2021/12/30 11:45:21;;;;;;;0.75;0.43;;;;;;;;;;5036872;28;20032;-63
2021/12/30 11:47:47;;;;;;;1.33;0.50;;;;;;;;;;5034337;28;20022;-63
2021/12/30 11:50:37;;;;;;;2.10;0.50;;;;;;;;;;5036585;28;20496;-63
2021/12/30 11:53:11;;;;;;;1.15;0.40;;;;;;;;;;5034417;28;20036;-64
2021/12/30 11:55:58;;;;;;;1.90;0.50;;;;;;;;;;5040208;28;20506;-63
2021/12/30 11:58:36;;;;;;;4.03;0.50;;;;;;;;;;5034715;28;20026;-62
2021/12/30 12:01:11;;;;;;;2.95;0.50;;;;;;;;;;5033608;28;20396;-63
2021/12/30 12:03:39;;;;;;;1.40;0.50;;;;;;;;;;5035409;28;20049;-63
2021/12/30 12:06:28;;;;;;;1.77;0.60;;;;;;;;;;5034208;28;20294;-63
2021/12/30 12:08:54;;;;;;;3.10;0.40;;;;;;;;;;5008751;28;20048;-62
2021/12/30 12:11:25;;;;;;;2.13;0.47;;;;;;;;;;5042163;28;20033;-63
2021/12/30 12:13:54;;;;;;;1.95;0.20;;;;;;;;;;5032798;28;20810;-63
2021/12/30 12:16:43;;;;;;;1.27;0.40;;;;;;;;;;5040685;28;20033;-63
2021/12/30 12:19:10;;;;;;;1.38;0.43;;;;;;;;;;5030518;28;20025;-63
2021/12/30 12:21:39;;;;;;;0.88;0.40;;;;;;;;;;5033809;28;20079;-63
2021/12/30 12:24:25;;;;;;;3.28;1.38;;;;;;;;;;5035606;28;20396;-64
2021/12/30 12:26:56;;;;;;;4.00;0.57;;;;;;;;;;5038555;28;20233;-64
2021/12/30 12:29:25;;;;;;;3.30;0.80;;;;;;;;;;5036420;28;20225;-64
2021/12/30 12:32:15;;;;;;;1.38;0.45;;;;;;;;;;5034045;28;20602;-63
2021/12/30 12:34:53;;;;;;;2.35;0.40;;;;;;;;;;5033368;28;20036;-64
2021/12/30 12:37:33;;;;;;;1.05;0.40;;;;;;;;;;5038067;28;20021;-63
2021/12/30 12:40:11;;;;;;;1.70;0.52;;;;;;;;;;5056038;28;20530;-64
2021/12/30 12:42:43;;;;;;;0.93;0.50;;;;;;;;;;5036752;28;20051;-63
2021/12/30 12:45:41;;;;;;;1.80;0.50;;;;;;;;;;5039974;28;20276;-64
2021/12/30 12:50:57;;;;;;;5.35;1.02;;;;;;;;;;5044490;28;20075;-64
2021/12/30 12:53:28;;;;;;;4.18;0.50;;;;;;;;;;5035015;28;20095;-63
2021/12/30 12:56:07;;;;;;;3.08;0.60;;;;;;;;;;5040768;28;20036;-63
2021/12/30 12:58:42;;;;;;;7.68;1.42;;;;;;;;;;5042310;28;20025;-63
2021/12/30 13:01:11;;;;;;;2.90;0.45;;;;;;;;;;5037445;28;20022;-64
2021/12/30 13:03:37;;;;;;;5.82;0.80;;;;;;;;;;5040164;28;20028;-64
2021/12/30 13:06:18;;;;;;;2.53;0.45;;;;;;;;;;5043277;28;20317;-63
2021/12/30 13:08:50;;;;;;;3.53;0.88;;;;;;;;;;5052939;28;20040;-62
2021/12/30 13:11:33;;;;;;;5.53;0.95;;;;;;;;;;5032886;28;20300;-64
2021/12/30 13:14:01;;;;;;;4.22;0.80;;;;;;;;;;5035672;28;20045;-64
2021/12/30 13:16:35;;;;;;;0.98;0.63;;;;;;;;;;5032060;28;20032;-64
2021/12/30 13:19:11;;;;;;;3.88;1.20;;;;;;;;;;5041141;28;20116;-64
2021/12/30 13:21:56;;;;;;;9.80;1.60;;;;;;;;;;5041296;28;20033;-64
2021/12/30 13:24:29;;;;;;;3.22;1.02;;;;;;;;;;5037482;28;20048;-64
2021/12/30 13:26:55;;;;;;;4.18;1.30;;;;;;;;;;5039610;28;20043;-63
2021/12/30 13:29:29;;;;;;;2.88;1.00;;;;;;;;;;5036788;28;20026;-62
2021/12/30 13:32:14;;;;;;;8.00;1.60;;;;;;;;;;5036106;28;20021;-63
2021/12/30 13:35:22;;;;;;;2.63;1.08;;;;;;;;;;5037893;28;20025;-63
2021/12/30 13:37:55;;;;;;;4.88;1.40;;;;;;;;;;4995605;28;20041;-63
2021/12/30 13:40:24;;;;;;;5.53;1.98;;;;;;;;;;5034526;28;20487;-63
2021/12/30 13:42:55;;;;;;;6.28;1.42;;;;;;;;;;5038415;28;20104;-63
2021/12/30 13:45:28;;;;;;;3.58;1.52;;;;;;;;;;5041384;28;20074;-63
2021/12/30 13:48:05;;;;;;;2.78;1.40;;;;;;;;;;5031499;28;20030;-64
2021/12/30 13:50:32;;;;;;;6.00;2.08;;;;;;;;;;5036840;28;20748;-64
2021/12/30 13:53:00;;;;;;;6.25;1.40;;;;;;;;;;5038328;28;20087;-64
2021/12/30 13:55:29;;;;;;;8.32;2.30;;;;;;;;;;5037810;28;20030;-65
2021/12/30 13:58:07;;;;;;;7.90;1.85;;;;;;;;;;5057003;28;20043;-64
2021/12/30 14:00:39;;;;;;;4.50;1.88;;;;;;;;;;5041167;28;20033;-63
2021/12/30 14:03:27;;;;;;;9.02;2.05;;;;;;;;;;5031897;28;20322;-63
2021/12/30 14:06:04;;;;;;;4.70;2.50;;;;;;;;;;5035227;28;20064;-63
2021/12/30 14:08:29;;;;;;;6.18;1.90;;;;;;;;;;5033626;28;20037;-63
2021/12/30 14:11:00;;;;;;;8.02;2.35;;;;;;;;;;5036908;28;20432;-62
2021/12/30 14:13:42;;;;;;;8.43;2.40;;;;;;;;;;5040243;28;20496;-66
2021/12/30 14:16:14;;;;;;;6.97;2.27;;;;;;;;;;5032237;28;20506;-63
2021/12/30 14:18:40;;;;;;;6.82;2.55;;;;;;;;;;5038119;28;20040;-63
2021/12/30 14:21:06;;;;;;;3.40;1.85;;;;;;;;;;5034489;28;20484;-63
2021/12/30 14:23:36;;;;;;;5.50;2.10;;;;;;;;;;5035919;28;20679;-63
2021/12/30 14:26:22;;;;;;;8.23;2.33;;;;;;;;;;5034627;28;20033;-63
2021/12/30 14:28:54;;;;;;;3.85;1.92;;;;;;;;;;5045082;28;20021;-63
2021/12/30 14:31:21;;;;;;;;;;;;;;;;;;5037079;28;20473;-63
2021/12/30 14:33:59;;;;;;;7.65;2.60;;;;;;;;;;5035823;28;20000;-63
2021/12/30 14:36:25;;;;;;;16.95;5.70;;;;;;;;;;5040775;28;20021;-64
2021/12/30 14:38:50;;;;;;;16.67;6.20;;;;;;;;;;5043200;28;20522;-64
2021/12/30 14:41:21;;;;;;;14.75;5.93;;;;;;;;;;5040884;28;20055;-64
2021/12/30 14:44:05;;;;;;;22.13;10.65;;;;;;;;;;5035398;28;20034;-64
2021/12/30 14:46:31;;;;;;;22.77;10.02;;;;;;;;;;5038780;28;20298;-63
2021/12/30 14:49:19;;;;;;;17.67;8.93;;;;;;;;;;5041522;28;20028;-64
2021/12/30 14:51:45;;;;;;;26.73;9.43;;;;;;;;;;5042411;28;20026;-64
2021/12/30 14:54:13;;;;;;;17.02;9.00;;;;;;;;;;5043647;28;20507;-64